Time,TemperatureF,DewpointF,PressureIn,WindDirection,WindDirectionDegrees,WindSpeedMPH,WindSpeedGustMPH,Humidity,HourlyPrecipIn,Conditions,Clouds,dailyrainin,SoftwareType,DateUTC
2013-04-28 00:01:00,57.2,50.4,29.95,NNW,338,0.0,0.0,78,0.00,,,0.00,WUHU216HW,2013-04-28 05:01:00,
2013-04-28 00:06:00,57.2,50.8,29.95,NNW,338,0.0,0.0,79,0.00,,,0.00,WUHU216HW,2013-04-28 05:06:00,
2013-04-28 00:11:00,57.2,50.8,29.95,NNW,338,0.0,0.0,79,0.00,,,0.00,WUHU216HW,2013-04-28 05:11:00,
2013-04-28 00:16:00,57.2,50.8,29.95,NNW,338,0.0,0.0,79,0.00,,,0.00,WUHU216HW,2013-04-28 05:16:00,
2013-04-28 00:21:00,57.2,50.8,29.95,NNW,338,0.0,0.0,79,0.00,,,0.00,WUHU216HW,2013-04-28 05:21:00,
2013-04-28 00:26:00,57.2,50.8,29.95,NNW,338,0.0,0.0,79,0.00,,,0.00,WUHU216HW,2013-04-28 05:26:00,
2013-04-28 00:31:00,57.2,50.8,29.95,North,0,0.4,1.3,79,0.00,,,0.00,WUHU216HW,2013-04-28 05:31:00,
2013-04-28 00:36:00,57.2,50.8,29.95,North,0,0.0,1.3,79,0.00,,,0.00,WUHU216HW,2013-04-28 05:36:00,
2013-04-28 10:00:00,68.0,55.4,29.94,ESE,113,2.0,2.0,64,0.00,,,0.00,WUHU216HW,2013-04-28 15:00:00,
2013-04-28 10:05:00,67.9,55.2,29.93,SSW,203,1.6,2.5,64,0.00,,,0.00,WUHU216HW,2013-04-28 15:05:00,
2013-04-28 10:10:00,68.0,55.4,29.93,SW,225,1.3,2.5,64,0.00,,,0.00,WUHU216HW,2013-04-28 15:10:00,
2013-04-28 10:15:00,68.0,54.9,29.93,SE,135,2.7,3.8,63,0.00,,,0.00,WUHU216HW,2013-04-28 15:15:00,
2013-04-28 10:20:00,67.5,54.5,29.94,West,270,2.0,3.8,63,0.00,,,0.00,WUHU216HW,2013-04-28 15:20:00,
2013-04-28 10:25:00,67.3,54.3,29.93,East,90,1.6,4.5,63,0.00,,,0.00,WUHU216HW,2013-04-28 15:25:00,
2013-04-28 10:30:00,67.7,55.4,29.93,SW,225,1.8,4.5,65,0.00,,,0.00,WUHU216HW,2013-04-28 15:30:00,
2013-04-28 10:35:00,68.8,56.1,29.93,East,90,1.8,3.4,64,0.00,,,0.00,WUHU216HW,2013-04-28 15:35:00,
2013-04-28 10:40:00,69.1,55.5,29.93,SW,225,1.1,4.7,62,0.00,,,0.00,WUHU216HW,2013-04-28 15:40:00,
2013-04-28 10:45:00,70.0,56.9,29.93,SSW,203,3.4,4.7,63,0.00,,,0.00,WUHU216HW,2013-04-28 15:45:00,
2013-04-28 10:50:00,70.7,57.1,29.93,West,270,1.6,4.9,62,0.00,,,0.00,WUHU216HW,2013-04-28 15:50:00,
2013-04-28 10:55:00,70.9,56.9,29.93,ESE,113,2.5,4.9,61,0.00,,,0.00,WUHU216HW,2013-04-28 15:55:00,
2013-04-28 11:00:00,70.4,55.9,29.93,East,90,0.4,5.8,60,0.00,,,0.00,WUHU216HW,2013-04-28 16:00:00,
2013-04-28 11:05:00,70.7,56.7,29.93,WSW,248,1.1,5.8,61,0.00,,,0.00,WUHU216HW,2013-04-28 16:05:00,
2013-04-28 11:10:00,71.1,57.0,29.93,ESE,113,1.1,4.0,61,0.00,,,0.00,WUHU216HW,2013-04-28 16:10:00,
2013-04-28 11:15:00,71.5,57.3,29.93,ESE,113,3.1,4.0,61,0.00,,,0.00,WUHU216HW,2013-04-28 16:15:00,
2013-04-28 11:20:00,71.8,57.7,29.93,WSW,248,1.3,4.3,61,0.00,,,0.00,WUHU216HW,2013-04-28 16:20:00,
2013-04-28 11:25:00,71.8,56.7,29.93,ESE,113,2.7,4.3,59,0.00,,,0.00,WUHU216HW,2013-04-28 16:25:00,
2013-04-28 11:30:00,71.6,57.1,29.92,SSW,203,1.3,4.5,60,0.00,,,0.00,WUHU216HW,2013-04-28 16:30:00,
2013-04-28 11:35:00,71.5,56.4,29.92,East,90,6.3,7.2,59,0.00,,,0.00,WUHU216HW,2013-04-28 16:35:00,
2013-04-28 11:40:00,70.9,55.9,29.92,SSE,158,1.1,7.2,59,0.00,,,0.00,WUHU216HW,2013-04-28 16:40:00,
2013-04-28 11:45:00,71.6,57.5,29.91,South,180,2.0,6.9,61,0.00,,,0.00,WUHU216HW,2013-04-28 16:45:00,
2013-04-28 11:50:00,72.2,57.5,29.91,North,0,1.1,3.6,60,0.00,,,0.00,WUHU216HW,2013-04-28 16:50:00,
2013-04-28 11:55:00,72.5,57.3,29.91,East,90,2.5,6.3,59,0.00,,,0.00,WUHU216HW,2013-04-28 16:55:00,
2013-04-28 12:00:00,72.5,57.9,29.91,SW,225,1.3,6.3,60,0.00,,,0.00,WUHU216HW,2013-04-28 17:00:00,
2013-04-28 12:05:00,72.7,57.1,29.90,ENE,68,0.9,4.9,58,0.00,,,0.00,WUHU216HW,2013-04-28 17:05:00,
2013-04-28 12:10:00,72.4,56.7,29.90,SSW,203,3.4,5.4,58,0.00,,,0.00,WUHU216HW,2013-04-28 17:10:00,
2013-04-28 12:15:00,72.5,56.3,29.90,ENE,68,3.6,5.4,57,0.00,,,0.00,WUHU216HW,2013-04-28 17:15:00,
2013-04-28 12:20:00,72.9,58.2,29.90,SSE,158,2.5,5.4,60,0.00,,,0.00,WUHU216HW,2013-04-28 17:20:00,
2013-04-28 12:25:00,73.6,57.3,29.90,East,90,4.0,6.9,57,0.00,,,0.00,WUHU216HW,2013-04-28 17:25:00,
2013-04-28 12:30:00,73.1,57.9,29.90,ESE,113,3.4,6.9,59,0.00,,,0.00,WUHU216HW,2013-04-28 17:30:00,
2013-04-28 12:35:00,73.4,57.7,29.89,ENE,68,1.8,6.3,58,0.00,,,0.00,WUHU216HW,2013-04-28 17:35:00,
2013-04-28 12:40:00,73.8,58.1,29.89,SSE,158,6.9,7.8,58,0.00,,,0.00,WUHU216HW,2013-04-28 17:40:00,
2013-04-28 12:45:00,74.0,57.7,29.89,SW,225,1.1,7.8,57,0.00,,,0.00,WUHU216HW,2013-04-28 17:45:00,
2013-04-28 12:50:00,74.5,59.2,29.89,WSW,248,2.9,6.9,59,0.00,,,0.00,WUHU216HW,2013-04-28 17:50:00,
2013-04-28 12:55:00,75.2,58.5,29.88,SSE,158,6.7,6.7,56,0.00,,,0.00,WUHU216HW,2013-04-28 17:55:00,
2013-04-28 13:00:00,74.9,57.6,29.88,SSE,158,5.4,6.7,55,0.00,,,0.00,WUHU216HW,2013-04-28 18:00:00,
2013-04-28 13:05:00,75.2,59.5,29.88,WSW,248,1.8,5.4,58,0.00,,,0.00,WUHU216HW,2013-04-28 18:05:00,
2013-04-28 13:10:00,76.0,59.6,29.87,SE,135,0.7,6.3,57,0.00,,,0.00,WUHU216HW,2013-04-28 18:10:00,
2013-04-28 13:15:00,76.0,58.6,29.87,South,180,2.0,6.3,55,0.00,,,0.00,WUHU216HW,2013-04-28 18:15:00,
2013-04-28 13:20:00,76.1,59.3,29.87,East,90,3.6,5.8,56,0.00,,,0.00,WUHU216HW,2013-04-28 18:20:00,
2013-04-28 13:25:00,76.3,58.0,29.86,SSE,158,3.4,5.4,53,0.00,,,0.00,WUHU216HW,2013-04-28 18:25:00,
2013-04-28 13:30:00,76.3,58.4,29.86,ESE,113,2.2,5.8,54,0.00,,,0.00,WUHU216HW,2013-04-28 18:30:00,
2013-04-28 13:35:00,76.0,58.2,29.86,SE,135,3.4,8.7,54,0.00,,,0.00,WUHU216HW,2013-04-28 18:35:00,
2013-04-28 13:40:00,76.7,59.2,29.86,East,90,0.9,8.7,55,0.00,,,0.00,WUHU216HW,2013-04-28 18:40:00,
2013-04-28 13:45:00,77.2,59.2,29.86,ESE,113,4.3,6.3,54,0.00,,,0.00,WUHU216HW,2013-04-28 18:45:00,
2013-04-28 13:50:00,77.6,59.0,29.86,SE,135,5.1,6.3,53,0.00,,,0.00,WUHU216HW,2013-04-28 18:50:00,
2013-04-28 13:55:00,77.8,59.2,29.85,NE,45,1.8,6.3,53,0.00,,,0.00,WUHU216HW,2013-04-28 18:55:00,
2013-04-28 14:00:00,78.1,59.6,29.85,SE,135,8.5,8.5,53,0.00,,,0.00,WUHU216HW,2013-04-28 19:00:00,
2013-04-28 14:05:00,78.1,58.6,29.85,SW,225,2.9,8.5,51,0.00,,,0.00,WUHU216HW,2013-04-28 19:05:00,
2013-04-28 14:10:00,78.5,59.4,29.85,SE,135,2.5,8.5,52,0.00,,,0.00,WUHU216HW,2013-04-28 19:10:00,
2013-04-28 14:15:00,78.1,58.1,29.84,East,90,3.1,8.5,50,0.00,,,0.00,WUHU216HW,2013-04-28 19:15:00,
2013-04-28 14:20:00,77.8,57.7,29.85,ESE,113,4.0,8.5,50,0.00,,,0.00,WUHU216HW,2013-04-28 19:20:00,
2013-04-28 14:25:00,77.9,57.9,29.84,ESE,113,2.7,7.6,50,0.00,,,0.00,WUHU216HW,2013-04-28 19:25:00,
2013-04-28 14:30:00,78.3,58.7,29.84,SW,225,0.7,6.9,51,0.00,,,0.00,WUHU216HW,2013-04-28 19:30:00,
2013-04-28 14:35:00,79.0,59.4,29.84,SE,135,2.5,4.0,51,0.00,,,0.00,WUHU216HW,2013-04-28 19:35:00,
2013-04-28 14:40:00,79.2,58.4,29.83,SE,135,4.7,6.5,49,0.00,,,0.00,WUHU216HW,2013-04-28 19:40:00,
2013-04-28 14:45:00,79.0,58.2,29.83,SSE,158,3.6,6.5,49,0.00,,,0.00,WUHU216HW,2013-04-28 19:45:00,
2013-04-28 14:50:00,79.2,57.8,29.83,South,180,1.1,7.6,48,0.00,,,0.00,WUHU216HW,2013-04-28 19:50:00,
2013-04-28 14:55:00,79.6,58.2,29.83,SSE,158,6.3,7.6,48,0.00,,,0.00,WUHU216HW,2013-04-28 19:55:00,
2013-04-28 15:00:00,79.7,58.2,29.83,SE,135,3.6,6.9,48,0.00,,,0.00,WUHU216HW,2013-04-28 20:00:00,
2013-04-28 15:05:00,79.6,56.9,29.83,East,90,7.6,8.3,46,0.00,,,0.00,WUHU216HW,2013-04-28 20:05:00,
2013-04-28 15:10:00,79.2,57.2,29.82,ESE,113,1.8,8.3,47,0.00,,,0.00,WUHU216HW,2013-04-28 20:10:00,
2013-04-28 15:15:00,79.2,57.8,29.82,SSE,158,4.7,8.3,48,0.00,,,0.00,WUHU216HW,2013-04-28 20:15:00,
2013-04-28 15:20:00,79.4,58.0,29.81,SE,135,4.3,8.3,48,0.00,,,0.00,WUHU216HW,2013-04-28 20:20:00,
2013-04-28 15:25:00,79.6,57.5,29.81,ESE,113,6.9,9.2,47,0.00,,,0.00,WUHU216HW,2013-04-28 20:25:00,
2013-04-28 15:30:00,79.4,56.7,29.81,SSE,158,4.7,9.2,46,0.00,,,0.00,WUHU216HW,2013-04-28 20:30:00,
2013-04-28 15:35:00,79.2,56.5,29.81,ESE,113,4.5,6.3,46,0.00,,,0.00,WUHU216HW,2013-04-28 20:35:00,
2013-04-28 15:40:00,79.0,56.4,29.80,NNE,23,4.0,7.8,46,0.00,,,0.00,WUHU216HW,2013-04-28 20:40:00,
2013-04-28 15:45:00,79.4,57.3,29.80,SW,225,3.4,9.4,47,0.00,,,0.00,WUHU216HW,2013-04-28 20:45:00,
2013-04-28 15:50:00,79.6,56.3,29.80,ESE,113,3.1,9.4,45,0.00,,,0.00,WUHU216HW,2013-04-28 20:50:00,
2013-04-28 15:55:00,79.7,57.1,29.80,SSE,158,1.6,7.4,46,0.00,,,0.00,WUHU216HW,2013-04-28 20:55:00,
2013-04-28 16:00:00,79.7,56.4,29.79,South,180,6.9,9.2,45,0.00,,,0.00,WUHU216HW,2013-04-28 21:00:00,
2013-04-28 16:05:00,80.1,57.3,29.79,ENE,68,3.4,9.2,46,0.00,,,0.00,WUHU216HW,2013-04-28 21:05:00,
2013-04-28 16:10:00,80.1,56.2,29.79,East,90,6.3,7.6,44,0.00,,,0.00,WUHU216HW,2013-04-28 21:10:00,
2013-04-28 16:15:00,79.9,57.3,29.79,ESE,113,2.7,8.3,46,0.00,,,0.00,WUHU216HW,2013-04-28 21:15:00,
2013-04-28 16:20:00,79.9,57.3,29.78,ESE,113,5.1,8.3,46,0.00,,,0.00,WUHU216HW,2013-04-28 21:20:00,
2013-04-28 16:25:00,79.9,57.3,29.78,SE,135,2.5,6.3,46,0.00,,,0.00,WUHU216HW,2013-04-28 21:25:00,
2013-04-28 16:30:00,80.3,56.9,29.78,East,90,7.2,7.6,45,0.00,,,0.00,WUHU216HW,2013-04-28 21:30:00,
2013-04-28 16:35:00,80.3,56.9,29.78,SSE,158,4.0,9.6,45,0.00,,,0.00,WUHU216HW,2013-04-28 21:35:00,
2013-04-28 16:40:00,80.3,56.9,29.78,ESE,113,5.1,9.6,45,0.00,,,0.00,WUHU216HW,2013-04-28 21:40:00,
2013-04-28 16:45:00,80.6,57.2,29.77,ESE,113,4.0,6.9,45,0.00,,,0.00,WUHU216HW,2013-04-28 21:45:00,
2013-04-28 16:50:00,80.6,57.2,29.77,SE,135,6.5,6.9,45,0.00,,,0.00,WUHU216HW,2013-04-28 21:50:00,
2013-04-28 16:55:00,80.6,56.0,29.77,SE,135,5.8,6.9,43,0.00,,,0.00,WUHU216HW,2013-04-28 21:55:00,
2013-04-28 17:00:00,80.6,56.6,29.77,SE,135,2.5,6.9,44,0.00,,,0.00,WUHU216HW,2013-04-28 22:00:00,
2013-04-28 17:05:00,80.6,56.0,29.77,South,180,3.4,6.5,43,0.00,,,0.00,WUHU216HW,2013-04-28 22:05:00,
2013-04-28 17:10:00,80.6,56.6,29.76,WSW,248,2.5,6.5,44,0.00,,,0.00,WUHU216HW,2013-04-28 22:10:00,
2013-04-28 17:15:00,80.8,56.8,29.76,ESE,113,3.4,6.3,44,0.00,,,0.00,WUHU216HW,2013-04-28 22:15:00,
2013-04-28 17:20:00,80.6,56.0,29.76,SSE,158,7.2,9.8,43,0.00,,,0.00,WUHU216HW,2013-04-28 22:20:00,
2013-04-28 17:25:00,80.5,56.4,29.76,SE,135,6.9,9.8,44,0.00,,,0.00,WUHU216HW,2013-04-28 22:25:00,
2013-04-28 17:30:00,80.3,55.7,29.76,SSE,158,4.5,8.3,43,0.00,,,0.00,WUHU216HW,2013-04-28 22:30:00,
2013-04-28 17:35:00,80.3,55.7,29.76,SSE,158,4.0,8.3,43,0.00,,,0.00,WUHU216HW,2013-04-28 22:35:00,
2013-04-28 17:40:00,80.3,55.7,29.76,South,180,4.7,6.9,43,0.00,,,0.00,WUHU216HW,2013-04-28 22:40:00,
2013-04-28 17:45:00,80.5,56.4,29.76,East,90,4.3,6.9,44,0.00,,,0.00,WUHU216HW,2013-04-28 22:45:00,
2013-04-28 17:50:00,80.3,56.4,29.76,East,90,4.3,8.5,44,0.00,,,0.00,WUHU216HW,2013-04-28 22:50:00,
2013-04-28 17:55:00,80.3,56.4,29.76,SE,135,6.3,8.5,44,0.00,,,0.00,WUHU216HW,2013-04-28 22:55:00,
2013-04-28 18:00:00,80.1,56.8,29.76,SSE,158,4.0,6.5,45,0.00,,,0.00,WUHU216HW,2013-04-28 23:00:00,
2013-04-28 18:05:00,79.9,56.6,29.75,East,90,4.5,8.5,45,0.00,,,0.00,WUHU216HW,2013-04-28 23:05:00,
2013-04-28 18:10:00,79.7,58.2,29.76,ENE,68,6.3,8.5,48,0.00,,,0.00,WUHU216HW,2013-04-28 23:10:00,
2013-04-28 18:15:00,79.4,58.6,29.75,East,90,6.9,7.6,49,0.00,,,0.00,WUHU216HW,2013-04-28 23:15:00,
2013-04-28 18:20:00,79.0,58.9,29.75,ESE,113,7.4,10.5,50,0.00,,,0.00,WUHU216HW,2013-04-28 23:20:00,
2013-04-28 18:25:00,78.5,58.9,29.75,ESE,113,5.4,10.5,51,0.00,,,0.00,WUHU216HW,2013-04-28 23:25:00,
2013-04-28 18:30:00,78.3,58.7,29.75,SSW,203,3.4,9.4,51,0.00,,,0.00,WUHU216HW,2013-04-28 23:30:00,
2013-04-28 18:35:00,78.1,58.6,29.75,East,90,4.3,8.5,51,0.00,,,0.00,WUHU216HW,2013-04-28 23:35:00,
2013-04-28 18:40:00,77.8,58.8,29.75,SE,135,4.0,10.5,52,0.00,,,0.00,WUHU216HW,2013-04-28 23:40:00,
2013-04-28 18:45:00,77.6,58.6,29.75,ESE,113,5.8,10.5,52,0.00,,,0.00,WUHU216HW,2013-04-28 23:45:00,
2013-04-28 18:50:00,77.4,59.0,29.75,SSE,158,4.0,8.1,53,0.00,,,0.00,WUHU216HW,2013-04-28 23:50:00,
2013-04-28 18:55:00,77.2,58.8,29.75,SSE,158,2.5,8.1,53,0.00,,,0.00,WUHU216HW,2013-04-28 23:55:00,
2013-04-28 19:00:00,77.0,58.6,29.75,ESE,113,2.5,9.2,53,0.00,,,0.00,WUHU216HW,2013-04-29 00:00:00,
2013-04-28 19:05:00,76.7,58.8,29.75,SSE,158,5.8,9.2,54,0.00,,,0.00,WUHU216HW,2013-04-29 00:05:00,
2013-04-28 19:10:00,76.3,58.4,29.75,East,90,3.4,7.4,54,0.00,,,0.00,WUHU216HW,2013-04-29 00:10:00,
2013-04-28 19:15:00,76.1,58.8,29.75,East,90,7.2,7.6,55,0.00,,,0.00,WUHU216HW,2013-04-29 00:15:00,
2013-04-28 19:20:00,75.8,58.4,29.75,SE,135,4.3,8.3,55,0.00,,,0.00,WUHU216HW,2013-04-29 00:20:00,
2013-04-28 19:25:00,75.6,58.8,29.75,ESE,113,2.5,12.1,56,0.00,,,0.00,WUHU216HW,2013-04-29 00:25:00,
2013-04-28 19:30:00,75.2,58.5,29.75,ESE,113,4.5,12.1,56,0.00,,,0.00,WUHU216HW,2013-04-29 00:30:00,
2013-04-28 19:35:00,75.1,58.8,29.75,SE,135,7.2,7.2,57,0.00,,,0.00,WUHU216HW,2013-04-29 00:35:00,
2013-04-28 19:40:00,74.7,58.4,29.75,SSE,158,5.4,7.2,57,0.00,,,0.00,WUHU216HW,2013-04-29 00:40:00,
2013-04-28 19:45:00,74.5,58.8,29.75,ESE,113,2.5,7.2,58,0.00,,,0.00,WUHU216HW,2013-04-29 00:45:00,
2013-04-28 19:50:00,74.2,58.4,29.75,SE,135,4.7,6.3,58,0.00,,,0.00,WUHU216HW,2013-04-29 00:50:00,
2013-04-28 19:55:00,73.8,58.1,29.75,SE,135,6.3,9.4,58,0.00,,,0.00,WUHU216HW,2013-04-29 00:55:00,
2013-04-28 20:00:00,73.4,58.1,29.75,East,90,2.5,9.4,59,0.00,,,0.00,WUHU216HW,2013-04-29 01:00:00,
2013-04-28 20:05:00,73.3,58.1,29.75,SE,135,2.7,6.3,59,0.00,,,0.00,WUHU216HW,2013-04-29 01:05:00,
2013-04-28 20:10:00,72.9,57.7,29.75,ESE,113,2.9,6.3,59,0.00,,,0.00,WUHU216HW,2013-04-29 01:10:00,
2013-04-28 20:15:00,72.7,58.1,29.75,ESE,113,4.0,4.7,60,0.00,,,0.00,WUHU216HW,2013-04-29 01:15:00,
2013-04-28 20:20:00,72.4,57.7,29.75,ESE,113,2.5,4.0,60,0.00,,,0.00,WUHU216HW,2013-04-29 01:20:00,
2013-04-28 20:25:00,72.2,57.5,29.75,ESE,113,2.0,4.3,60,0.00,,,0.00,WUHU216HW,2013-04-29 01:25:00,
2013-04-28 20:30:00,71.8,57.3,29.75,ESE,113,3.4,4.3,60,0.00,,,0.00,WUHU216HW,2013-04-29 01:30:00,
2013-04-28 20:35:00,71.6,57.5,29.76,East,90,3.4,4.0,61,0.00,,,0.00,WUHU216HW,2013-04-29 01:35:00,
2013-04-28 20:40:00,71.3,57.2,29.76,ESE,113,1.8,4.0,61,0.00,,,0.00,WUHU216HW,2013-04-29 01:40:00,
2013-04-28 20:45:00,71.1,57.0,29.76,ESE,113,1.8,4.7,61,0.00,,,0.00,WUHU216HW,2013-04-29 01:45:00,
2013-04-28 20:50:00,70.9,56.4,29.76,East,90,2.0,4.7,60,0.00,,,0.00,WUHU216HW,2013-04-29 01:50:00,
2013-04-28 20:55:00,70.7,56.7,29.76,ESE,113,1.8,3.6,61,0.00,,,0.00,WUHU216HW,2013-04-29 01:55:00,
2013-04-28 21:00:00,70.4,56.3,29.76,East,90,1.8,2.5,61,0.00,,,0.00,WUHU216HW,2013-04-29 02:00:00,
2013-04-28 21:05:00,70.0,56.0,29.77,East,90,1.1,2.2,61,0.00,,,0.00,WUHU216HW,2013-04-29 02:05:00,
2013-04-28 21:10:00,69.8,56.3,29.77,East,90,1.1,2.2,62,0.00,,,0.00,WUHU216HW,2013-04-29 02:10:00,
2013-04-28 21:15:00,69.7,56.5,29.77,East,90,2.5,2.5,63,0.00,,,0.00,WUHU216HW,2013-04-29 02:15:00,
2013-04-28 21:20:00,69.5,56.8,29.77,ESE,113,1.8,3.4,64,0.00,,,0.00,WUHU216HW,2013-04-29 02:20:00,
2013-04-28 21:25:00,69.1,56.4,29.77,ESE,113,1.8,3.4,64,0.00,,,0.00,WUHU216HW,2013-04-29 02:25:00,
2013-04-28 21:30:00,68.8,56.5,29.77,ESE,113,2.7,3.1,65,0.00,,,0.00,WUHU216HW,2013-04-29 02:30:00,
2013-04-28 21:35:00,68.6,56.4,29.77,ESE,113,1.8,3.4,65,0.00,,,0.00,WUHU216HW,2013-04-29 02:35:00,
2013-04-28 21:40:00,68.4,56.6,29.77,ESE,113,3.1,4.0,66,0.00,,,0.00,WUHU216HW,2013-04-29 02:40:00,
2013-04-28 21:45:00,68.2,56.4,29.77,ESE,113,2.9,4.0,66,0.00,,,0.00,WUHU216HW,2013-04-29 02:45:00,
2013-04-28 21:50:00,68.0,56.7,29.77,ESE,113,2.5,4.5,67,0.00,,,0.00,WUHU216HW,2013-04-29 02:50:00,
2013-04-28 21:55:00,68.0,56.7,29.77,East,90,2.9,4.5,67,0.00,,,0.00,WUHU216HW,2013-04-29 02:55:00,
2013-04-28 22:00:00,68.0,56.7,29.77,SE,135,3.4,4.3,67,0.00,,,0.00,WUHU216HW,2013-04-29 03:00:00,
2013-04-28 22:05:00,67.9,56.5,29.77,ESE,113,1.8,4.0,67,0.00,,,0.00,WUHU216HW,2013-04-29 03:05:00,
2013-04-28 22:10:00,67.7,56.4,29.77,SE,135,2.9,4.3,67,0.00,,,0.00,WUHU216HW,2013-04-29 03:10:00,
2013-04-28 22:15:00,67.7,56.4,29.77,ESE,113,3.6,4.7,67,0.00,,,0.00,WUHU216HW,2013-04-29 03:15:00,
2013-04-28 22:20:00,67.5,56.6,29.78,SSE,158,4.0,4.7,68,0.00,,,0.00,WUHU216HW,2013-04-29 03:20:00,